Clear Sky Current Weather (METAR) For Antalya Airport

All times on the weather descriptions are local

Observed at 05:50 - (29 mins ago)

Clear Sky

24°C

Clear Sky
Clouds:
Wind: Calm
Visibility: Greater than 10km
QNH: 1005
Dew Point: 22°C
Runway in Use: Unable to determine, wind is clam

Sunrise Today: 06:00
Sunset Today: 20:05

Forecast Weather (TAF) For Antalya Airport

Issued at 03:00 - (3 hrs 19 mins ago)


Runway in Use: Unable to determine, wind is clam

Forecast valid until 03:00 on Thursday

METAR/TAF RAW METAR / TAF

LTAI 310250Z 00000KT CAVOK 24/22 Q1005 NOSIG RMK RWY18C 34003KT 190V360 RWY36R VRB02KT RWY18L 00000KT

Weather Widget

Put weather from any of our airports on your website with our weather widget.

Find Another Search

Airport Search


Please Wait Please Wait - Loading
Close
Close

Login

Username:

Password:

Remember Me:

Remember me on this computer

Forgotten your password? Get a reset password sent to your registered e-mail address

Close

User Private Message

Subject:

Message: